Overview Statistics Trail Chart Weather Telemetry Raw packets
 

This is the latest recevied weather packets stored in our database for station/object KA1AL. If no packets are shown the sender has not sent any weather packets the latest 10 day(s).

<< 52 53 54 55 56 57 58 >>
Time Temp. Humidity Pressure Rain* Wind** Luminosity Snow
1777317267 20.56° C 46% 1022.7 hPa 0 mm - 271 W/m² -
1777316961 19.44° C 47% 1022.8 hPa 0 mm - 764 W/m² -
1777316660 19.44° C 48% 1022.7 hPa 0 mm - 228 W/m² -
1777316355 19.44° C 47% 1022.8 hPa 0 mm - 208 W/m² -
1777316053 18.89° C 48% 1022.9 hPa 0 mm - 184 W/m² -
1777315752 18.89° C 49% 1022.8 hPa 0 mm - 150 W/m² -
1777315449 18.89° C 48% 1022.8 hPa 0 mm - 110 W/m² -
1777315147 18.89° C 49% 1022.7 hPa 0 mm - 107 W/m² -
1777314842 19.44° C 51% 1022.8 hPa 0 mm - 100 W/m² -
1777314539 19.44° C 49% 1022.8 hPa 0 mm - 116 W/m² -
1777314235 19.44° C 49% 1023.1 hPa 0 mm - 143 W/m² -
1777313933 19.44° C 48% 1022.7 hPa 0 mm - 171 W/m² -
1777313630 19.44° C 48% 1022.8 hPa 0 mm - 257 W/m² -
1777313328 20° C 48% 1022.9 hPa 0 mm - 258 W/m² -
1777313024 20° C 48% 1022.9 hPa 0 mm - 317 W/m² -
1777171316 7.78° C 67% 1016.7 hPa 0 mm - 0 W/m² -
1777171011 7.78° C 67% 1016.7 hPa 0 mm - 0 W/m² -
1777170710 7.78° C 67% 1016.8 hPa 0 mm - 0 W/m² -
1777170407 7.78° C 68% 1016.6 hPa 0 mm - 0 W/m² -
1777170105 7.78° C 68% 1016.7 hPa 0 mm - 0 W/m² -
1777169801 7.78° C 69% 1016.5 hPa 0 mm - 0 W/m² -
1777169498 7.78° C 68% 1016.6 hPa 0 mm - 0 W/m² -
1777169198 7.78° C 69% 1016.7 hPa 0 mm - 0 W/m² -
1777168893 7.78° C 68% 1016.8 hPa 0 mm - 0 W/m² -
1777168590 7.78° C 68% 1017.2 hPa 0 mm - 0 W/m² -

* Rain latest hour (hover to see other rain measurements)
** Current wind speed in m/s (hover to see current wind gust speed)